createdAt,value
2023-02-12T00:00:03.838Z,1021.79
2023-02-12T00:05:01.319Z,1021.78
2023-02-12T00:10:01.620Z,1021.78
2023-02-12T00:15:02.069Z,1021.79
2023-02-12T00:20:02.260Z,1021.76
2023-02-12T00:25:01.337Z,1021.76
2023-02-12T00:30:01.854Z,1021.74
2023-02-12T00:35:02.174Z,1021.79
2023-02-12T00:40:01.360Z,1021.79
2023-02-12T00:45:01.849Z,1021.84
2023-02-12T00:50:01.537Z,1021.8
2023-02-12T00:55:01.844Z,1021.77
2023-02-12T01:00:02.122Z,1021.83
2023-02-12T01:05:01.340Z,1021.88
2023-02-12T01:10:01.654Z,1021.87
2023-02-12T01:15:02.083Z,1021.87
2023-02-12T01:20:02.159Z,1021.84
2023-02-12T01:25:01.690Z,1021.89
2023-02-12T01:30:01.784Z,1021.82
2023-02-12T01:35:02.077Z,1021.78
2023-02-12T01:40:02.242Z,1021.76
2023-02-12T01:45:01.488Z,1021.76
2023-02-12T01:50:01.855Z,1021.72
2023-02-12T01:55:01.954Z,1021.69
2023-02-12T02:00:02.139Z,1021.73
2023-02-12T02:05:01.805Z,1021.69
2023-02-12T02:10:01.469Z,1021.67
2023-02-12T02:15:02.074Z,1021.63
2023-02-12T02:20:01.357Z,1021.64
2023-02-12T02:25:01.829Z,1021.64
2023-02-12T02:30:01.393Z,1021.61
2023-02-12T02:35:02.000Z,1021.67
2023-02-12T02:40:02.110Z,1021.61
2023-02-12T02:45:01.427Z,1021.64
2023-02-12T02:50:01.382Z,1021.64
2023-02-12T02:55:01.558Z,1021.57
2023-02-12T03:00:01.943Z,1021.56
2023-02-12T03:05:01.943Z,1021.57
2023-02-12T03:10:02.226Z,1021.6
2023-02-12T03:15:01.461Z,1021.52
2023-02-12T03:20:02.131Z,1021.54
2023-02-12T03:25:01.890Z,1021.42
2023-02-12T03:30:01.789Z,1021.47
2023-02-12T03:35:02.257Z,1021.44
2023-02-12T03:40:01.872Z,1021.42
2023-02-12T03:45:02.205Z,1021.46
2023-02-12T03:50:02.177Z,1021.54
2023-02-12T03:55:02.007Z,1021.54
2023-02-12T04:00:01.969Z,1021.44
2023-02-12T04:05:02.120Z,1021.42
2023-02-12T04:10:02.226Z,1021.52
2023-02-12T04:15:02.253Z,1021.55
2023-02-12T04:20:02.233Z,1021.56
2023-02-12T04:25:01.989Z,1021.6
2023-02-12T04:30:02.077Z,1021.67
2023-02-12T04:35:02.038Z,1021.69
2023-02-12T04:40:02.035Z,1021.71
2023-02-12T04:45:02.025Z,1021.72
2023-02-12T04:50:01.288Z,1021.71
2023-02-12T04:55:01.700Z,1021.77
2023-02-12T05:00:01.693Z,1021.76
2023-02-12T05:05:02.112Z,1021.73
2023-02-12T05:10:02.245Z,1021.72
2023-02-12T05:15:02.020Z,1021.75
2023-02-12T05:20:02.182Z,1021.73
2023-02-12T05:25:01.508Z,1021.77
2023-02-12T05:30:02.079Z,1021.81
2023-02-12T05:35:02.168Z,1021.79
2023-02-12T05:40:02.157Z,1021.78
2023-02-12T05:45:02.201Z,1021.84
2023-02-12T05:50:02.261Z,1021.89
2023-02-12T05:55:02.180Z,1021.92
2023-02-12T06:00:02.207Z,1021.86
2023-02-12T06:05:02.077Z,1021.92
2023-02-12T06:10:01.288Z,1021.93
2023-02-12T06:15:01.391Z,1022.01
2023-02-12T06:20:01.784Z,1021.99
2023-02-12T06:25:02.049Z,1021.96
2023-02-12T06:30:01.742Z,1022.02
2023-02-12T06:35:02.114Z,1022.04
2023-02-12T06:40:02.143Z,1022.01
2023-02-12T06:45:01.373Z,1022.03
2023-02-12T06:50:02.014Z,1022.11
2023-02-12T06:55:02.281Z,1022.18
2023-02-12T07:00:02.198Z,1022.17
2023-02-12T07:05:02.293Z,1022.23
2023-02-12T07:10:01.434Z,1022.24
2023-02-12T07:15:01.973Z,1022.26
2023-02-12T07:20:01.362Z,1022.36
2023-02-12T07:25:01.825Z,1022.37
2023-02-12T07:30:02.214Z,1022.38
2023-02-12T07:35:01.520Z,1022.33
2023-02-12T07:40:00.300Z,1022.42
2023-02-12T07:45:02.274Z,1022.39
2023-02-12T07:50:01.464Z,1022.39
2023-02-12T07:55:01.734Z,1022.44
2023-02-12T08:00:01.701Z,1022.47
2023-02-12T08:05:01.405Z,1022.53
2023-02-12T08:10:02.104Z,1022.53
2023-02-12T08:15:01.522Z,1022.54
2023-02-12T08:20:02.191Z,1022.51
2023-02-12T08:25:01.311Z,1022.54
2023-02-12T08:30:01.998Z,1022.59
2023-02-12T08:35:01.353Z,1022.67
2023-02-12T08:40:01.577Z,1022.63
2023-02-12T08:45:01.922Z,1022.65
2023-02-12T08:50:02.261Z,1022.69
2023-02-12T08:55:01.491Z,1022.79
2023-02-12T09:00:01.715Z,1022.76
2023-02-12T09:05:02.216Z,1022.76
2023-02-12T09:10:01.300Z,1022.83
2023-02-12T09:15:01.531Z,1022.77
2023-02-12T09:20:01.958Z,1022.78
2023-02-12T09:25:02.103Z,1022.79
2023-02-12T09:30:01.984Z,1022.78
2023-02-12T09:35:01.411Z,1022.78
2023-02-12T09:40:01.429Z,1022.77
2023-02-12T09:45:02.042Z,1022.7
2023-02-12T09:50:02.204Z,1022.69
2023-02-12T09:55:02.117Z,1022.74
2023-02-12T10:00:01.559Z,1022.81
2023-02-12T10:05:02.598Z,1022.83
2023-02-12T10:10:02.112Z,1022.86
2023-02-12T10:15:01.542Z,1022.84
2023-02-12T10:20:02.272Z,1022.88
2023-02-12T10:25:01.726Z,1022.95
2023-02-12T10:30:02.183Z,1022.98
2023-02-12T10:35:01.528Z,1022.98
2023-02-12T10:40:01.946Z,1022.95
2023-02-12T10:45:02.044Z,1022.98
2023-02-12T10:50:01.291Z,1022.94
2023-02-12T10:55:01.601Z,1022.94
2023-02-12T11:00:01.932Z,1022.8
2023-02-12T11:05:01.522Z,1022.77
2023-02-12T11:10:02.014Z,1022.71
2023-02-12T11:15:02.246Z,1022.68
2023-02-12T11:20:02.197Z,1022.59
2023-02-12T11:25:01.372Z,1022.55
2023-02-12T11:30:01.781Z,1022.51
2023-02-12T11:35:02.013Z,1022.5
2023-02-12T11:40:02.079Z,1022.48
2023-02-12T11:45:02.226Z,1022.43
2023-02-12T11:50:01.724Z,1022.36
2023-02-12T11:55:02.240Z,1022.37
2023-02-12T12:00:01.526Z,1022.34
2023-02-12T12:05:01.791Z,1022.26
2023-02-12T12:10:02.051Z,1022.16
2023-02-12T12:15:02.240Z,1022.1
2023-02-12T12:20:01.716Z,1022.1
2023-02-12T12:25:02.610Z,1022.08
2023-02-12T12:30:01.561Z,1022.06
2023-02-12T12:35:01.334Z,1022.05
2023-02-12T12:40:01.850Z,1022.02
2023-02-12T12:45:02.054Z,1022.02
2023-02-12T12:50:02.227Z,1021.9
2023-02-12T12:55:01.264Z,1021.82
2023-02-12T13:00:01.919Z,1021.8
2023-02-12T13:05:02.267Z,1021.72
2023-02-12T13:10:01.515Z,1021.66
2023-02-12T13:15:01.771Z,1021.6
2023-02-12T13:20:02.384Z,1021.54
2023-02-12T13:25:01.276Z,1021.53
2023-02-12T13:30:01.803Z,1021.44
2023-02-12T13:35:02.161Z,1021.45
2023-02-12T13:40:02.248Z,1021.42
2023-02-12T13:45:01.368Z,1021.3
2023-02-12T13:50:01.807Z,1021.3
2023-02-12T13:55:02.109Z,1021.3
2023-02-12T14:00:01.781Z,1021.29
2023-02-12T14:05:01.979Z,1021.2
2023-02-12T14:10:02.211Z,1021.11
2023-02-12T14:15:01.326Z,1021.12
2023-02-12T14:20:02.014Z,1021.16
2023-02-12T14:25:01.418Z,1021.06
2023-02-12T14:30:01.828Z,1021.11
2023-02-12T14:35:02.214Z,1021.06
2023-02-12T14:40:01.668Z,1021.12
2023-02-12T14:45:01.536Z,1021.17
2023-02-12T14:50:01.892Z,1021.21
2023-02-12T14:55:02.047Z,1021.2
2023-02-12T15:00:02.228Z,1021.19
2023-02-12T15:05:01.399Z,1021.21
2023-02-12T15:10:01.808Z,1021.18
2023-02-12T15:15:01.937Z,1021.14
2023-02-12T15:20:01.450Z,1021.05
2023-02-12T15:25:01.820Z,1021.06
2023-02-12T15:30:01.885Z,1021.1
2023-02-12T15:35:02.118Z,1021.01
2023-02-12T15:40:01.494Z,1021.09
2023-02-12T15:45:01.733Z,1021.08
2023-02-12T15:50:02.028Z,1021.01
2023-02-12T15:55:01.645Z,1021.02
2023-02-12T16:00:01.892Z,1020.97
2023-02-12T16:05:02.258Z,1020.97
2023-02-12T16:10:02.228Z,1020.92
2023-02-12T16:15:02.092Z,1020.84
2023-02-12T16:20:01.374Z,1020.9
2023-02-12T16:25:01.519Z,1020.92
2023-02-12T16:30:01.697Z,1020.88
2023-02-12T16:35:01.904Z,1020.88
2023-02-12T16:40:02.056Z,1020.93
2023-02-12T16:45:01.691Z,1020.91
2023-02-12T16:50:01.450Z,1020.92
2023-02-12T16:55:01.707Z,1020.92
2023-02-12T17:00:02.037Z,1020.94
2023-02-12T17:05:01.299Z,1021.01
2023-02-12T17:10:01.935Z,1021.07
2023-02-12T17:15:01.994Z,1021.07
2023-02-12T17:20:01.358Z,1021.13
2023-02-12T17:25:01.889Z,1021.15
2023-02-12T17:30:01.886Z,1021.16
2023-02-12T17:35:02.058Z,1021.16
2023-02-12T17:40:01.999Z,1021.16
2023-02-12T17:50:02.220Z,1021.25
2023-02-12T17:55:02.054Z,1021.22
2023-02-12T18:00:01.817Z,1021.2
2023-02-12T18:05:02.265Z,1021.26
2023-02-12T18:10:01.695Z,1021.28
2023-02-12T18:15:01.902Z,1021.25
2023-02-12T18:20:02.051Z,1021.26
2023-02-12T18:25:01.314Z,1021.3
2023-02-12T18:30:01.654Z,1021.31
2023-02-12T18:35:01.842Z,1021.29
2023-02-12T18:40:02.108Z,1021.34
2023-02-12T18:45:02.181Z,1021.33
2023-02-12T18:50:01.867Z,1021.28
2023-02-12T18:55:02.113Z,1021.26
2023-02-12T19:00:02.009Z,1021.21
2023-02-12T19:05:02.178Z,1021.21
2023-02-12T19:10:01.383Z,1021.2
2023-02-12T19:15:01.917Z,1021.17
2023-02-12T19:20:02.052Z,1021.12
2023-02-12T19:25:02.128Z,1021.17
2023-02-12T19:30:02.043Z,1021.2
2023-02-12T19:35:01.413Z,1021.24
2023-02-12T19:40:02.046Z,1021.18
2023-02-12T19:45:02.245Z,1021.17
2023-02-12T19:50:01.269Z,1021.16
2023-02-12T19:55:01.488Z,1021.12
2023-02-12T20:00:01.550Z,1021.04
2023-02-12T20:05:01.492Z,1021
2023-02-12T20:10:01.948Z,1021.06
2023-02-12T20:15:01.980Z,1021.06
2023-02-12T20:20:01.488Z,1021.05
2023-02-12T20:25:01.918Z,1021.05
2023-02-12T20:30:01.975Z,1021.04
2023-02-12T20:35:02.130Z,1021.04
2023-02-12T20:40:02.138Z,1021.03
2023-02-12T20:45:01.512Z,1021
2023-02-12T20:50:01.430Z,1021.02
2023-02-12T20:55:01.915Z,1021.01
2023-02-12T21:00:01.771Z,1021.04
2023-02-12T21:05:01.555Z,1021
2023-02-12T21:10:01.596Z,1020.96
2023-02-12T21:15:01.722Z,1020.98
2023-02-12T21:20:01.625Z,1021
2023-02-12T21:25:02.195Z,1020.98
2023-02-12T21:30:01.870Z,1020.97
2023-02-12T21:35:01.727Z,1021.01
2023-02-12T21:40:02.124Z,1021.03
2023-02-12T21:45:02.173Z,1021.06
2023-02-12T21:50:01.630Z,1021.09
2023-02-12T21:55:01.894Z,1021.1
2023-02-12T22:00:01.763Z,1021.11
2023-02-12T22:05:02.086Z,1021.06
2023-02-12T22:10:01.394Z,1021.03
2023-02-12T22:15:02.082Z,1021
2023-02-12T22:20:02.209Z,1021.01
2023-02-12T22:25:02.159Z,1021
2023-02-12T22:30:01.981Z,1020.97
2023-02-12T22:35:02.081Z,1021.01
2023-02-12T22:40:01.726Z,1021
2023-02-12T22:45:02.007Z,1021
2023-02-12T22:50:01.290Z,1021.02
2023-02-12T22:55:01.786Z,1020.96
2023-02-12T23:00:03.202Z,1021
2023-02-12T23:05:06.169Z,1020.92
2023-02-12T23:10:03.222Z,1020.91
2023-02-12T23:15:01.423Z,1020.96
2023-02-12T23:20:02.106Z,1020.96
2023-02-12T23:25:02.243Z,1020.97
2023-02-12T23:30:02.198Z,1020.99
2023-02-12T23:35:02.310Z,1021.02
2023-02-12T23:40:02.210Z,1020.96
2023-02-12T23:45:02.104Z,1020.98
2023-02-12T23:50:01.953Z,1020.99
2023-02-12T23:55:01.365Z,1020.86
